Time;durP1;ratioP1;P1;durP2;ratioP2;P2;SDS_P1;SDS_P2;PMS_P1;PMS_P2;Temp;Humidity;BMP_temperature;BMP_pressure;BME280_temperature;BME280_humidity;BME280_pressure;Samples;Min_cycle;Max_cycle;Signal;HPM_P1;HPM_P2
2021/10/11 00:02:00;;;;;;;;;19.75;18.00;;;;;23.87;41.57;102730.47;5073645;28;45364;-66
2021/10/11 00:04:26;;;;;;;;;17.25;15.50;;;;;23.87;41.49;102736.63;5075871;28;45372;-67
2021/10/11 00:06:51;;;;;;;;;18.00;17.50;;;;;23.87;41.83;102728.66;5076811;28;45253;-67
2021/10/11 00:09:16;;;;;;;;;17.00;16.25;;;;;23.88;41.38;102726.84;5075185;28;47016;-67
2021/10/11 00:11:42;;;;;;;;;16.75;16.00;;;;;23.88;41.15;102732.16;5076295;28;45478;-67
2021/10/11 00:14:07;;;;;;;;;17.50;17.50;;;;;23.84;41.75;102726.28;5076462;28;45486;-67
2021/10/11 00:16:34;;;;;;;;;20.25;16.00;;;;;23.87;41.20;102727.81;5075526;28;45498;-67
2021/10/11 00:19:00;;;;;;;;;19.75;15.25;;;;;23.87;41.20;102733.13;5075755;28;47240;-67
2021/10/11 00:21:25;;;;;;;;;18.25;16.75;;;;;23.82;41.90;102729.09;5059141;28;45718;-67
2021/10/11 00:23:50;;;;;;;;;19.50;16.75;;;;;23.87;41.30;102733.97;5075392;28;45498;-67
2021/10/11 00:26:16;;;;;;;;;18.25;17.00;;;;;23.87;41.80;102731.31;5075425;28;45306;-67
2021/10/11 00:28:41;;;;;;;;;18.25;17.75;;;;;23.87;41.72;102728.66;5075353;28;45491;-67
2021/10/11 00:31:07;;;;;;;;;20.50;19.50;;;;;23.88;41.85;102724.19;5075091;28;45443;-67
2021/10/11 00:33:32;;;;;;;;;20.50;18.00;;;;;23.84;41.55;102719.16;5077526;28;45820;-67
2021/10/11 00:35:57;;;;;;;;;18.75;16.50;;;;;23.87;41.24;102717.19;5075407;28;45434;-67
2021/10/11 00:38:23;;;;;;;;;16.50;16.00;;;;;23.87;41.21;102718.03;5074893;28;45332;-67
2021/10/11 00:40:48;;;;;;;;;20.25;18.25;;;;;23.87;41.67;102719.84;5073700;28;45475;-67
2021/10/11 00:43:13;;;;;;;;;15.50;15.50;;;;;23.87;41.52;102722.50;5075242;28;45393;-67
2021/10/11 00:45:39;;;;;;;;;17.25;16.50;;;;;23.86;41.84;102719.03;5076844;28;45281;-67
2021/10/11 00:48:05;;;;;;;;;16.50;16.50;;;;;23.85;41.76;102715.53;5052748;28;47357;-67
2021/10/11 00:50:30;;;;;;;;;18.50;18.00;;;;;23.78;41.29;102708.28;5059189;28;45625;-68
2021/10/11 00:52:56;;;;;;;;;21.50;21.00;;;;;23.85;41.61;102723.50;5059464;28;45456;-67
2021/10/11 00:55:22;;;;;;;;;15.25;15.25;;;;;23.86;41.85;102724.34;5059458;28;45527;-68
2021/10/11 00:57:47;;;;;;;;;22.00;19.75;;;;;23.80;41.65;102723.09;5056994;28;46392;-67
2021/10/11 01:00:13;;;;;;;;;18.50;18.50;;;;;23.85;41.88;102723.50;5058170;28;45452;-68
2021/10/11 01:02:40;;;;;;;;;19.75;19.25;;;;;23.85;41.83;102725.31;5062363;28;45314;-67
2021/10/11 01:05:05;;;;;;;;;16.50;14.75;;;;;23.83;41.79;102725.47;5062420;28;45414;-67
2021/10/11 01:07:31;;;;;;;;;18.00;17.00;;;;;23.85;41.77;102727.97;5059877;28;45327;-68
2021/10/11 01:09:56;;;;;;;;;16.50;16.50;;;;;23.84;41.19;102728.94;5059591;28;45397;-67
2021/10/11 01:12:22;;;;;;;;;18.00;17.00;;;;;23.84;41.33;102731.59;5061148;28;45295;-67
2021/10/11 01:14:47;;;;;;;;;17.00;15.25;;;;;23.84;41.66;102729.78;5063138;28;45554;-67
2021/10/11 01:17:14;;;;;;;;;20.25;18.25;;;;;23.83;41.79;102716.66;5066149;28;45360;-67
2021/10/11 01:19:40;;;;;;;;;19.00;15.75;;;;;23.73;41.76;102706.88;5061730;28;45628;-67
2021/10/11 01:22:06;;;;;;;;;14.50;14.25;;;;;23.83;41.91;102724.63;5058282;28;45483;-67
2021/10/11 01:24:32;;;;;;;;;20.50;19.75;;;;;23.83;41.31;102721.97;5060824;28;45313;-67
2021/10/11 01:26:57;;;;;;;;;20.00;20.00;;;;;23.80;41.45;102722.25;5061304;28;45460;-67
2021/10/11 01:29:22;;;;;;;;;17.00;17.00;;;;;23.81;41.83;102724.75;5061644;28;45726;-67
2021/10/11 01:31:49;;;;;;;;;20.75;16.00;;;;;23.79;41.96;102704.63;5062013;28;45425;-67
2021/10/11 01:34:15;;;;;;;;;17.25;17.25;;;;;23.74;41.69;102705.06;5057896;28;45461;-66
2021/10/11 01:36:40;;;;;;;;;15.50;15.25;;;;;23.81;41.23;102714.13;5059884;28;47216;-67
2021/10/11 01:39:09;;;;;;;;;14.50;14.25;;;;;23.81;41.30;102723.94;5062630;28;46025;-67
2021/10/11 01:41:36;;;;;;;;;19.50;16.00;;;;;23.81;41.12;102723.94;5061808;28;45428;-67
2021/10/11 01:44:02;;;;;;;;;15.75;15.00;;;;;23.80;41.22;102716.94;5061560;28;45449;-67
2021/10/11 01:46:28;;;;;;;;;14.75;14.75;;;;;23.72;41.51;102707.03;5059122;28;46047;-67
2021/10/11 01:48:53;;;;;;;;;16.00;15.50;;;;;23.82;41.15;102722.94;5058482;28;45474;-67
2021/10/11 01:51:19;;;;;;;;;18.25;17.50;;;;;23.82;41.78;102728.25;5060589;28;45416;-67
2021/10/11 01:53:45;;;;;;;;;17.00;17.00;;;;;23.82;41.41;102725.59;5070058;28;45353;-67
2021/10/11 01:56:10;;;;;;;;;15.00;15.00;;;;;23.81;41.10;102719.44;5069313;28;46582;-67
2021/10/11 01:58:36;;;;;;;;;19.00;17.75;;;;;23.81;41.10;102711.47;5072289;28;45336;-68
2021/10/11 02:01:01;;;;;;;;;15.50;15.50;;;;;23.81;41.26;102710.66;5074030;28;45328;-68
2021/10/11 02:03:27;;;;;;;;;16.25;14.25;;;;;23.80;41.71;102709.81;5057746;28;45512;-67
2021/10/11 02:05:52;;;;;;;;;17.75;17.50;;;;;23.81;41.30;102702.69;5072099;28;45363;-67
2021/10/11 02:08:17;;;;;;;;;16.50;16.50;;;;;23.75;41.08;102693.47;5073861;28;45412;-66
2021/10/11 02:10:43;;;;;;;;;15.75;15.75;;;;;23.81;41.10;102705.34;5074147;28;45341;-67
2021/10/11 02:13:08;;;;;;;;;16.25;16.25;;;;;23.81;41.22;102708.81;5073696;28;45229;-67
2021/10/11 02:15:33;;;;;;;;;16.50;15.75;;;;;23.82;41.11;102693.69;5074409;28;46053;-66
2021/10/11 02:17:59;;;;;;;;;13.25;13.25;;;;;23.82;41.72;102696.34;5061593;28;45376;-65
2021/10/11 02:20:25;;;;;;;;;18.00;14.00;;;;;23.81;41.50;102706.16;5061255;28;45687;-67
2021/10/11 02:22:51;;;;;;;;;14.50;13.50;;;;;23.80;41.61;102709.81;5065224;28;45426;-68
2021/10/11 02:25:16;;;;;;;;;14.75;14.75;;;;;23.75;41.78;102698.78;5079741;28;45431;-67
2021/10/11 02:27:42;;;;;;;;;13.25;12.75;;;;;23.80;41.12;102706.31;5061336;28;45363;-68
2021/10/11 02:30:10;;;;;;;;;15.75;15.50;;;;;23.80;41.35;102701.00;5064745;28;45381;-67
2021/10/11 02:32:36;;;;;;;;;15.00;13.75;;;;;23.79;41.79;102700.16;5064525;28;45545;-67
2021/10/11 02:35:02;;;;;;;;;15.50;15.00;;;;;23.80;41.17;102706.31;5067408;28;45459;-67
2021/10/11 02:37:27;;;;;;;;;15.25;15.00;;;;;23.79;41.52;102707.28;5065435;28;45348;-67
2021/10/11 02:39:54;;;;;;;;;16.25;16.00;;;;;23.79;41.71;102701.97;5065233;27;45397;-67
2021/10/11 02:42:19;;;;;;;;;15.75;14.00;;;;;23.66;41.22;102687.19;5066357;28;45349;-67
2021/10/11 02:44:44;;;;;;;;;15.25;15.25;;;;;23.79;41.46;102707.28;5067260;27;45644;-67
2021/10/11 02:47:10;;;;;;;;;14.00;14.00;;;;;23.73;41.37;102703.41;5067320;27;45498;-67
2021/10/11 02:49:35;;;;;;;;;15.00;14.25;;;;;23.78;41.48;102713.59;5066631;28;45504;-67
2021/10/11 02:52:01;;;;;;;;;14.25;13.00;;;;;23.79;41.16;102707.28;5064451;28;45378;-67
2021/10/11 02:54:26;;;;;;;;;13.00;13.00;;;;;23.78;41.35;102714.44;5066398;28;45400;-67
2021/10/11 02:56:51;;;;;;;;;15.00;13.25;;;;;23.78;41.52;102705.63;5067125;28;45538;-67
2021/10/11 02:59:17;;;;;;;;;15.00;12.25;;;;;23.72;41.39;102697.25;5067609;28;45370;-67
2021/10/11 03:01:42;;;;;;;;;13.25;13.25;;;;;23.78;41.68;102702.97;5067162;28;45386;-67
2021/10/11 03:04:07;;;;;;;;;16.75;16.75;;;;;23.66;41.27;102686.34;5063299;28;45360;-67
2021/10/11 03:06:33;;;;;;;;;18.00;14.00;;;;;23.76;41.79;102708.41;5066005;28;45430;-67
2021/10/11 03:08:58;;;;;;;;;14.00;13.00;;;;;23.76;41.59;102705.75;5067544;28;45501;-67
2021/10/11 03:11:25;;;;;;;;;15.75;14.00;;;;;23.68;41.63;102687.88;5053738;28;47872;-67
2021/10/11 03:13:50;;;;;;;;;13.75;13.75;;;;;23.66;41.73;102665.09;5075314;28;45557;-67
2021/10/11 03:16:15;;;;;;;;;14.00;12.00;;;;;23.70;41.28;102674.47;5078497;28;45541;-67
2021/10/11 03:18:41;;;;;;;;;14.00;12.25;;;;;23.76;41.46;102679.19;5082128;28;45356;-67
2021/10/11 03:21:06;;;;;;;;;15.25;13.75;;;;;23.72;41.03;102676.00;5079692;28;45435;-67
2021/10/11 03:23:31;;;;;;;;;13.00;12.25;;;;;23.77;41.33;102690.66;5078138;28;46047;-67
2021/10/11 03:25:57;;;;;;;;;9.50;9.50;;;;;23.77;41.49;102690.66;5079183;28;45266;-67
2021/10/11 03:28:22;;;;;;;;;16.00;15.00;;;;;23.76;41.64;102692.47;5076721;28;45352;-67
2021/10/11 03:30:47;;;;;;;;;12.25;11.00;;;;;23.77;41.29;102696.81;5067539;28;46057;-67
2021/10/11 03:33:13;;;;;;;;;13.00;13.00;;;;;23.77;41.24;102690.66;5062721;28;45327;-67
2021/10/11 03:35:38;;;;;;;;;12.50;11.75;;;;;23.71;41.69;102690.25;5059373;28;45370;-67
2021/10/11 03:38:03;;;;;;;;;13.25;12.50;;;;;23.73;41.70;102688.28;5060401;28;45473;-66
2021/10/11 03:40:29;;;;;;;;;12.00;11.75;;;;;23.72;41.46;102688.44;5060233;28;45283;-67
2021/10/11 03:42:55;;;;;;;;;13.75;13.00;;;;;23.78;41.18;102687.03;5061899;28;45658;-67
2021/10/11 03:45:20;;;;;;;;;12.00;12.00;;;;;23.77;41.13;102686.19;5062423;28;45583;-67
2021/10/11 03:47:45;;;;;;;;;11.75;11.75;;;;;23.77;41.02;102694.16;5078928;27;45544;-67
2021/10/11 03:50:11;;;;;;;;;15.25;12.75;;;;;23.69;41.30;102678.09;5063427;28;45622;-67
2021/10/11 03:52:36;;;;;;;;;12.75;12.75;;;;;23.77;41.01;102685.34;5062314;28;46019;-67
2021/10/11 03:55:02;;;;;;;;;15.00;13.75;;;;;23.77;41.54;102693.31;5061936;28;45372;-67
2021/10/11 03:57:27;;;;;;;;;14.25;13.50;;;;;23.74;41.29;102692.63;5062362;28;45360;-67
2021/10/11 03:59:53;;;;;;;;;11.50;11.50;;;;;23.73;41.51;102692.78;5063405;28;45358;-67
2021/10/11 04:02:18;;;;;;;;;13.00;13.00;;;;;23.69;41.56;102683.41;5062789;28;46107;-68
2021/10/11 04:04:44;;;;;;;;;12.25;12.25;;;;;23.76;41.52;102699.63;5063126;28;45502;-67
2021/10/11 04:07:12;;;;;;;;;17.00;13.25;;;;;23.76;41.39;102712.91;5059096;27;45350;-67
2021/10/11 04:09:39;;;;;;;;;12.25;12.25;;;;;23.74;41.38;102710.38;5061588;28;45345;-67
2021/10/11 04:12:16;;;;;;;;;12.50;11.75;;;;;23.74;41.43;102713.03;5063143;28;47176;-66
2021/10/11 04:14:42;;;;;;;;;13.25;13.00;;;;;23.76;41.30;102715.56;5062880;28;45469;-67
2021/10/11 04:17:07;;;;;;;;;10.75;10.75;;;;;23.69;41.59;102710.81;5063031;28;45538;-67
2021/10/11 04:19:33;;;;;;;;;12.50;12.50;;;;;23.76;41.40;102710.25;5061728;28;45313;-67
2021/10/11 04:21:58;;;;;;;;;14.25;13.00;;;;;23.75;41.33;102709.41;5060261;28;46974;-67
2021/10/11 04:24:23;;;;;;;;;10.75;10.75;;;;;23.74;41.72;102705.06;5061240;28;45377;-67
2021/10/11 04:26:49;;;;;;;;;13.50;13.50;;;;;23.73;41.58;102706.88;5062804;28;45546;-67
2021/10/11 04:29:14;;;;;;;;;12.00;11.25;;;;;23.72;41.39;102701.72;5048766;28;45436;-67
2021/10/11 04:31:39;;;;;;;;;10.25;10.25;;;;;23.70;41.57;102701.03;5071937;27;46203;-67
2021/10/11 04:34:04;;;;;;;;;13.50;12.00;;;;;23.72;41.28;102704.38;5057750;28;45490;-67
2021/10/11 04:36:30;;;;;;;;;13.50;12.75;;;;;23.72;40.95;102701.72;5077286;27;45408;-67
2021/10/11 04:38:55;;;;;;;;;13.50;12.25;;;;;23.73;41.70;102706.88;5071736;28;45436;-67
2021/10/11 04:41:20;;;;;;;;;12.25;11.50;;;;;23.60;41.37;102688.63;5073372;28;46382;-67
2021/10/11 04:43:46;;;;;;;;;11.75;11.00;;;;;23.73;41.17;102703.41;5075135;28;45395;-67
2021/10/11 04:46:11;;;;;;;;;12.00;10.00;;;;;23.65;41.23;102688.19;5074887;28;45340;-67
2021/10/11 04:48:36;;;;;;;;;12.75;10.00;;;;;23.73;41.02;102704.22;5077251;28;45569;-67
2021/10/11 04:51:02;;;;;;;;;14.50;13.00;;;;;23.72;41.23;102715.84;5069815;28;46614;-67
2021/10/11 04:53:27;;;;;;;;;10.25;10.25;;;;;23.69;41.59;102710.81;5061506;28;45695;-67
2021/10/11 04:55:53;;;;;;;;;10.00;10.00;;;;;23.63;41.07;102696.28;5062299;28;45515;-67
2021/10/11 04:58:18;;;;;;;;;10.50;10.50;;;;;23.71;41.04;102706.19;5059384;28;45372;-67
2021/10/11 05:00:43;;;;;;;;;11.50;9.25;;;;;23.72;41.09;102715.00;5056268;28;46400;-67
2021/10/11 05:03:09;;;;;;;;;12.75;11.00;;;;;23.72;41.59;102718.50;5059180;28;45530;-67
2021/10/11 05:05:35;;;;;;;;;10.75;10.75;;;;;23.72;41.26;102715.84;5059098;28;45373;-67
2021/10/11 05:08:01;;;;;;;;;10.25;10.25;;;;;23.73;41.07;102714.03;5058615;28;45520;-67
2021/10/11 05:10:26;;;;;;;;;12.50;9.25;;;;;23.73;41.18;102712.19;5058438;28;45490;-67
2021/10/11 05:12:52;;;;;;;;;8.50;8.50;;;;;23.71;41.40;102718.63;5057179;28;45426;-67
2021/10/11 05:15:17;;;;;;;;;10.25;10.25;;;;;23.73;41.46;102722.81;5061533;28;45827;-67
2021/10/11 05:17:43;;;;;;;;;12.25;11.75;;;;;23.72;40.97;102729.16;5062001;28;45541;-67
2021/10/11 05:20:10;;;;;;;;;11.00;11.00;;;;;23.73;41.35;102733.47;5061520;28;45398;-68
2021/10/11 05:22:35;;;;;;;;;12.25;11.00;;;;;23.73;40.97;102735.31;5060844;28;45419;-67
2021/10/11 05:25:01;;;;;;;;;10.75;10.50;;;;;23.73;41.08;102730.81;5058896;28;45625;-68
2021/10/11 05:27:27;;;;;;;;;11.50;11.00;;;;;23.73;41.57;102732.66;5060657;28;45516;-68
2021/10/11 05:29:52;;;;;;;;;10.25;8.25;;;;;23.73;41.01;102732.66;5061814;28;46096;-68
2021/10/11 05:32:18;;;;;;;;;9.75;9.75;;;;;23.73;41.31;102725.47;5061782;28;45511;-67
2021/10/11 05:34:44;;;;;;;;;10.25;9.00;;;;;23.62;41.09;102715.91;5061040;28;45476;-67
2021/10/11 05:37:10;;;;;;;;;10.00;9.75;;;;;23.72;41.28;102722.97;5074425;28;45294;-67
2021/10/11 05:39:35;;;;;;;;;10.50;10.00;;;;;23.72;41.31;102736.28;5074949;28;45290;-68
2021/10/11 05:42:01;;;;;;;;;10.00;10.00;;;;;23.65;41.24;102721.91;5062204;28;45426;-67
2021/10/11 05:44:26;;;;;;;;;10.75;10.75;;;;;23.67;41.30;102722.59;5067738;28;45489;-66
2021/10/11 05:46:51;;;;;;;;;10.75;10.75;;;;;23.72;41.85;102738.94;5050820;28;45412;-67
2021/10/11 05:49:17;;;;;;;;;8.50;7.75;;;;;23.72;41.65;102734.47;5058053;28;46153;-66
2021/10/11 05:51:43;;;;;;;;;11.00;10.75;;;;;23.72;41.99;102733.63;5068639;28;45344;-67
2021/10/11 05:54:08;;;;;;;;;9.25;9.25;;;;;23.72;41.48;102734.47;5073971;28;45600;-67
2021/10/11 05:56:34;;;;;;;;;7.00;7.00;;;;;23.72;42.01;102734.47;5071251;27;45493;-67
2021/10/11 05:59:02;;;;;;;;;9.75;9.50;;;;;23.72;42.02;102739.78;5073497;28;45453;-68
2021/10/11 06:01:27;;;;;;;;;9.75;8.25;;;;;23.69;41.57;102731.25;5071163;28;45424;-68
2021/10/11 06:03:53;;;;;;;;;10.00;9.75;;;;;23.72;41.98;102742.44;5055559;28;45489;-67
2021/10/11 06:06:18;;;;;;;;;10.25;10.00;;;;;23.72;41.63;102744.25;5057665;28;45522;-68
2021/10/11 06:08:43;;;;;;;;;5.75;5.75;;;;;23.64;41.68;102737.00;5057550;28;46776;-67
2021/10/11 06:11:08;;;;;;;;;13.50;11.00;;;;;23.72;42.23;102753.06;5057119;27;45404;-67
2021/10/11 06:13:34;;;;;;;;;8.25;8.00;;;;;23.72;42.03;102754.88;5058372;28;45361;-67
2021/10/11 06:15:59;;;;;;;;;7.25;7.25;;;;;23.67;42.05;102754.47;5065769;28;45436;-68
2021/10/11 06:18:25;;;;;;;;;10.25;9.75;;;;;23.65;42.03;102748.47;5059486;28;45576;-68
2021/10/11 06:20:50;;;;;;;;;9.75;8.00;;;;;23.69;42.19;102750.69;5061381;28;45430;-68
2021/10/11 06:23:15;;;;;;;;;9.75;8.75;;;;;23.74;42.15;102768.84;5061246;28;45501;-68
2021/10/11 06:25:41;;;;;;;;;11.00;9.50;;;;;23.68;42.03;102758.81;5060728;28;45512;-68
2021/10/11 06:28:07;;;;;;;;;11.00;8.00;;;;;23.75;41.63;102767.88;5057176;28;47057;-68
2021/10/11 06:30:32;;;;;;;;;11.00;9.75;;;;;23.77;42.24;102775.69;5059853;28;45391;-68
2021/10/11 06:32:57;;;;;;;;;11.50;9.00;;;;;23.75;41.61;102783.81;5039488;28;45506;-68
2021/10/11 06:35:23;;;;;;;;;8.50;8.00;;;;;23.67;41.95;102781.03;5057758;28;45423;-68
2021/10/11 06:37:49;;;;;;;;;11.25;8.50;;;;;23.77;41.79;102789.81;5060842;27;47275;-68
2021/10/11 06:40:15;;;;;;;;;7.75;7.75;;;;;23.76;42.06;102789.97;5057101;28;45430;-68
2021/10/11 06:42:40;;;;;;;;;8.75;8.75;;;;;23.77;41.79;102787.16;5059535;28;45352;-68
2021/10/11 06:45:05;;;;;;;;;8.00;8.00;;;;;23.77;42.30;102781.00;5060842;28;45445;-68
2021/10/11 06:47:31;;;;;;;;;12.75;10.00;;;;;23.78;42.05;102788.00;5060499;28;45364;-68
2021/10/11 06:49:56;;;;;;;;;9.00;9.00;;;;;23.78;42.28;102793.34;5060798;28;45569;-69
2021/10/11 06:52:22;;;;;;;;;8.00;8.00;;;;;23.78;42.21;102786.19;5066828;28;45499;-68
2021/10/11 06:54:47;;;;;;;;;11.25;10.00;;;;;23.78;42.12;102785.34;5058883;28;45333;-68
2021/10/11 06:57:13;;;;;;;;;9.75;9.25;;;;;23.77;41.54;102781.84;5059998;28;45301;-68
2021/10/11 06:59:38;;;;;;;;;10.00;9.00;;;;;23.72;41.77;102781.44;5060503;28;45280;-68
2021/10/11 07:02:04;;;;;;;;;10.25;7.75;;;;;23.77;41.73;102787.16;5060213;28;45234;-68
2021/10/11 07:04:30;;;;;;;;;8.50;8.50;;;;;23.77;41.86;102778.34;5067271;28;45457;-68
2021/10/11 07:06:56;;;;;;;;;12.00;9.00;;;;;23.66;41.96;102761.59;5055145;28;46356;-68
2021/10/11 07:09:21;;;;;;;;;9.25;9.25;;;;;23.77;42.12;102786.31;5058753;28;45415;-68
2021/10/11 07:11:50;;;;;;;;;9.50;8.75;;;;;23.77;41.71;102788.97;5064191;27;45276;-68
2021/10/11 07:14:15;;;;;;;;;10.50;8.75;;;;;23.76;41.60;102793.47;5064030;28;45495;-68
2021/10/11 07:16:41;;;;;;;;;10.00;8.50;;;;;23.77;42.11;102792.50;5061776;28;45288;-68
2021/10/11 07:19:06;;;;;;;;;8.50;7.75;;;;;23.77;41.71;102796.97;5060373;28;45353;-68
2021/10/11 07:21:31;;;;;;;;;11.00;11.00;;;;;23.72;41.77;102803.56;5059255;28;45338;-67
2021/10/11 07:23:57;;;;;;;;;12.75;10.25;;;;;23.76;41.79;102811.25;5062093;28;45396;-68
2021/10/11 07:26:22;;;;;;;;;8.25;8.25;;;;;23.77;41.84;102810.25;5060672;28;46221;-68
2021/10/11 07:28:48;;;;;;;;;7.25;7.25;;;;;23.75;41.96;102815.72;5063762;27;45337;-68
2021/10/11 07:31:13;;;;;;;;;6.00;6.00;;;;;23.75;42.13;102818.38;5059193;28;45297;-67
2021/10/11 07:33:38;;;;;;;;;8.00;7.50;;;;;23.74;41.86;102820.19;5062525;28;45315;-68
2021/10/11 07:36:03;;;;;;;;;9.00;8.00;;;;;23.66;41.92;102801.47;5063680;28;45413;-68
2021/10/11 07:38:30;;;;;;;;;9.75;9.25;;;;;23.74;42.02;102822.84;5051285;28;45429;-68
2021/10/11 07:40:57;;;;;;;;;8.50;8.50;;;;;23.74;41.80;102827.31;5076263;28;45483;-68
2021/10/11 07:43:22;;;;;;;;;8.25;8.25;;;;;23.65;41.60;102809.59;5076363;28;45493;-67
2021/10/11 07:45:48;;;;;;;;;10.75;8.00;;;;;23.73;41.46;102831.78;5077003;28;46056;-68
2021/10/11 07:48:14;;;;;;;;;9.75;8.50;;;;;23.70;41.52;102828.59;5076559;28;45332;-67
2021/10/11 07:50:39;;;;;;;;;10.00;10.00;;;;;23.74;41.78;102827.31;5074313;28;45384;-68
2021/10/11 07:53:05;;;;;;;;;7.00;7.00;;;;;23.76;41.81;102833.31;5068424;28;45274;-68
2021/10/11 07:55:30;;;;;;;;;9.00;9.00;;;;;23.77;41.62;102836.81;5061418;28;45440;-68
2021/10/11 07:57:55;;;;;;;;;10.00;10.00;;;;;23.75;41.44;102831.66;5060803;28;45601;-68
2021/10/11 08:00:21;;;;;;;;;7.25;7.25;;;;;23.77;41.61;102827.03;5061857;28;45178;-67
2021/10/11 08:02:47;;;;;;;;;8.00;7.50;;;;;23.78;41.76;102834.03;5063258;28;45508;-68
2021/10/11 08:05:14;;;;;;;;;10.25;8.25;;;;;23.78;41.90;102831.38;5063270;28;45395;-68
2021/10/11 08:07:40;;;;;;;;;9.00;9.00;;;;;23.78;41.34;102839.34;5044000;28;45500;-68
2021/10/11 08:10:06;;;;;;;;;7.25;6.25;;;;;23.79;41.57;102842.81;5059610;28;45538;-68
2021/10/11 08:12:32;;;;;;;;;8.00;8.00;;;;;23.79;41.59;102850.81;5061686;28;45476;-68
2021/10/11 08:14:57;;;;;;;;;7.75;7.75;;;;;23.73;41.67;102839.75;5062924;28;45935;-69
2021/10/11 08:17:23;;;;;;;;;7.50;7.00;;;;;23.77;41.83;102843.00;5063045;27;45465;-68
2021/10/11 08:19:48;;;;;;;;;8.00;8.00;;;;;23.80;41.26;102844.53;5062653;28;45282;-68
2021/10/11 08:22:13;;;;;;;;;7.00;7.00;;;;;23.80;41.80;102848.03;5058925;28;45282;-68
2021/10/11 08:24:38;;;;;;;;;8.50;8.50;;;;;23.74;41.61;102835.28;5061633;28;45310;-68
2021/10/11 08:27:05;;;;;;;;;8.25;8.25;;;;;23.80;42.05;102855.16;5062830;28;45225;-67
2021/10/11 08:29:32;;;;;;;;;7.00;7.00;;;;;23.80;41.49;102855.16;5068769;27;45503;-68
2021/10/11 08:31:58;;;;;;;;;8.25;8.25;;;;;23.80;41.52;102868.44;5075270;28;45551;-67
2021/10/11 08:34:23;;;;;;;;;10.75;9.00;;;;;23.79;42.02;102862.28;5073803;28;45991;-67
2021/10/11 08:36:48;;;;;;;;;8.00;7.50;;;;;23.80;41.73;102860.47;5076927;28;45281;-68
2021/10/11 08:39:14;;;;;;;;;9.00;7.00;;;;;23.80;41.69;102871.94;5076279;28;45443;-67
2021/10/11 08:41:41;;;;;;;;;8.75;7.50;;;;;23.80;41.96;102876.41;5075401;28;45474;-68
2021/10/11 08:44:06;;;;;;;;;6.25;6.25;;;;;23.80;41.31;102873.75;5069190;28;47094;-68
2021/10/11 08:46:32;;;;;;;;;8.75;6.75;;;;;23.80;41.87;102865.78;5060273;28;45506;-67
2021/10/11 08:48:59;;;;;;;;;10.75;7.25;;;;;23.79;41.66;102856.97;5075715;28;45435;-68
2021/10/11 08:51:24;;;;;;;;;9.00;7.75;;;;;23.72;41.79;102859.38;5061297;28;45414;-68
2021/10/11 08:53:50;;;;;;;;;9.75;8.00;;;;;23.77;41.95;102856.28;5062284;28;46152;-68
2021/10/11 08:56:15;;;;;;;;;8.75;8.00;;;;;23.78;42.12;102867.75;5064799;28;45470;-68
2021/10/11 08:58:50;;;;;;;;;7.75;6.50;;;;;23.80;41.48;102869.28;5061816;28;45476;-68
2021/10/11 09:01:20;;;;;;;;;7.00;7.00;;;;;23.71;41.26;102862.16;5059059;28;45477;-68
2021/10/11 09:03:45;;;;;;;;;9.75;8.00;;;;;23.69;41.55;102859.66;5037922;28;47204;-68
2021/10/11 09:06:12;;;;;;;;;9.00;7.50;;;;;23.63;42.06;102847.75;5058640;28;45533;-68
2021/10/11 09:08:40;;;;;;;;;7.25;6.25;;;;;23.80;41.73;102871.09;5062433;28;45364;-68
2021/10/11 09:11:08;;;;;;;;;9.00;9.00;;;;;23.81;41.94;102875.44;5064500;28;45556;-68
2021/10/11 09:13:39;;;;;;;;;8.75;8.75;;;;;23.80;41.72;102873.75;5073216;28;46693;-68
2021/10/11 09:16:18;;;;;;;;;8.50;6.75;;;;;23.67;41.38;102848.31;5058311;28;45416;-68
2021/10/11 09:18:52;;;;;;;;;7.50;7.25;;;;;23.73;41.98;102855.72;5056380;28;45309;-68
2021/10/11 09:21:30;;;;;;;;;7.50;7.25;;;;;23.70;41.55;102860.50;5058276;28;45466;-68
2021/10/11 09:24:10;;;;;;;;;8.00;8.00;;;;;23.81;41.68;102884.22;5058399;28;47188;-67
2021/10/11 09:26:47;;;;;;;;;5.25;5.25;;;;;23.81;41.70;102881.56;5058301;28;45413;-67
2021/10/11 09:29:15;;;;;;;;;7.00;7.00;;;;;23.80;41.79;102879.91;5058496;28;47866;-67
2021/10/11 09:31:48;;;;;;;;;6.00;6.00;;;;;23.82;41.82;102879.75;5057855;28;45495;-68
2021/10/11 09:34:15;;;;;;;;;8.50;8.50;;;;;23.81;41.83;102873.59;5057349;27;46467;-68
2021/10/11 09:36:40;;;;;;;;;6.25;6.00;;;;;23.82;41.75;102879.75;5072035;28;45371;-68
2021/10/11 09:39:06;;;;;;;;;7.50;6.25;;;;;23.81;41.55;102878.91;5058661;28;45506;-68
2021/10/11 09:41:32;;;;;;;;;6.75;6.00;;;;;23.83;41.52;102876.13;5043155;28;45437;-67
2021/10/11 09:43:57;;;;;;;;;5.00;5.00;;;;;23.82;41.64;102875.28;5058444;28;45282;-67
2021/10/11 09:46:24;;;;;;;;;6.75;6.75;;;;;23.83;41.70;102874.31;5058298;28;45376;-67
2021/10/11 09:48:58;;;;;;;;;7.50;7.00;;;;;23.84;41.57;102878.63;5074723;28;45244;-68
2021/10/11 09:51:24;;;;;;;;;6.00;6.00;;;;;23.85;41.40;102876.81;5073760;28;45528;-68
2021/10/11 09:53:52;;;;;;;;;11.50;8.75;;;;;23.84;41.47;102878.63;5063866;28;47398;-68
2021/10/11 09:56:17;;;;;;;;;8.75;5.75;;;;;23.81;41.62;102867.47;5061163;28;45525;-68
2021/10/11 09:58:43;;;;;;;;;6.00;6.00;;;;;23.85;42.01;102868.84;5076774;27;45427;-68
2021/10/11 10:01:09;;;;;;;;;5.00;5.00;;;;;23.85;41.24;102869.69;5057604;28;45628;-67
2021/10/11 10:03:36;;;;;;;;;6.50;6.50;;;;;23.85;41.65;102867.03;5060061;28;47085;-68
2021/10/11 10:06:05;;;;;;;;;6.75;6.75;;;;;23.85;41.69;102868.84;5061224;28;45416;-67
2021/10/11 10:08:31;;;;;;;;;5.75;5.75;;;;;23.85;41.45;102855.56;5061543;28;45316;-68
2021/10/11 10:11:02;;;;;;;;;5.00;5.00;;;;;23.85;41.70;102859.06;5061124;28;45431;-67
2021/10/11 10:13:29;;;;;;;;;7.00;7.00;;;;;23.85;41.39;102858.22;5058180;28;46153;-68
2021/10/11 10:16:07;;;;;;;;;7.00;7.00;;;;;23.85;41.88;102856.41;5058636;28;45395;-68
2021/10/11 10:18:38;;;;;;;;;6.00;6.00;;;;;23.84;41.83;102854.72;5060094;28;45361;-68
2021/10/11 10:21:03;;;;;;;;;6.00;6.00;;;;;23.85;41.86;102844.94;5060352;28;45641;-68
2021/10/11 10:23:31;;;;;;;;;4.75;4.75;;;;;23.85;41.23;102843.13;5066124;28;46656;-67
2021/10/11 10:25:59;;;;;;;;;5.50;5.50;;;;;23.85;41.90;102840.44;5070565;28;46057;-67
2021/10/11 10:28:39;;;;;;;;;7.00;7.00;;;;;23.84;41.66;102841.41;5058201;28;45405;-68
2021/10/11 10:31:05;;;;;;;;;7.50;6.75;;;;;23.85;41.62;102848.44;5057369;28;45447;-68
2021/10/11 10:33:39;;;;;;;;;6.00;6.00;;;;;23.85;41.31;102852.91;5075199;27;47565;-68
2021/10/11 10:36:26;;;;;;;;;8.00;6.75;;;;;23.84;41.55;102843.25;5061049;28;45554;-67
2021/10/11 10:39:09;;;;;;;;;6.75;6.00;;;;;23.85;42.01;102842.28;5061194;28;45586;-68
2021/10/11 10:41:36;;;;;;;;;6.50;6.00;;;;;23.84;41.47;102835.25;5060931;28;46910;-67
2021/10/11 10:44:10;;;;;;;;;5.25;5.25;;;;;23.84;41.29;102844.09;5062591;28;45466;-68
2021/10/11 10:46:36;;;;;;;;;6.00;6.00;;;;;23.87;41.27;102839.44;5062864;28;45526;-67
2021/10/11 10:49:01;;;;;;;;;6.00;6.00;;;;;23.87;41.54;102836.78;5061547;28;45313;-68
2021/10/11 10:51:27;;;;;;;;;6.50;6.50;;;;;23.86;41.75;102841.28;5070845;28;45763;-67
2021/10/11 10:53:54;;;;;;;;;7.00;7.00;;;;;23.87;41.84;102842.94;5065683;28;46180;-68
2021/10/11 10:56:21;;;;;;;;;7.75;6.00;;;;;23.81;41.74;102824.94;5046222;28;45487;-68
2021/10/11 10:58:49;;;;;;;;;4.50;4.50;;;;;23.83;41.24;102828.28;5064466;28;45296;-67
2021/10/11 11:01:15;;;;;;;;;6.00;5.25;;;;;23.88;41.69;102841.13;5059919;28;45257;-68
2021/10/11 11:03:40;;;;;;;;;7.75;6.25;;;;;23.81;41.23;102830.25;5062766;28;46252;-67
2021/10/11 11:06:06;;;;;;;;;4.75;4.75;;;;;23.90;41.92;102844.50;5064095;28;45452;-68
2021/10/11 11:08:32;;;;;;;;;6.00;5.25;;;;;23.88;41.84;102842.00;5063916;28;45393;-68
2021/10/11 11:11:02;;;;;;;;;5.00;5.00;;;;;23.89;41.69;102843.66;5064171;28;45580;-68
2021/10/11 11:13:28;;;;;;;;;6.00;5.00;;;;;23.90;41.18;102836.50;5062198;28;46251;-68